sensor_id;sensor_type;location;lat;lon;timestamp;P1;durP1;ratioP1;P2;durP2;ratioP2
52776;SDS011;38656;54.260;20.822;2023-04-06T00:02:20;8.90;;;7.10;;
52776;SDS011;38656;54.260;20.822;2023-04-06T00:04:46;6.70;;;5.47;;
52776;SDS011;38656;54.260;20.822;2023-04-06T00:07:12;10.52;;;6.53;;
52776;SDS011;38656;54.260;20.822;2023-04-06T00:09:38;6.18;;;5.57;;
52776;SDS011;38656;54.260;20.822;2023-04-06T00:12:04;6.85;;;5.57;;
52776;SDS011;38656;54.260;20.822;2023-04-06T00:14:31;5.45;;;4.72;;
52776;SDS011;38656;54.260;20.822;2023-04-06T00:16:57;8.40;;;5.38;;
52776;SDS011;38656;54.260;20.822;2023-04-06T00:19:23;7.68;;;5.05;;
52776;SDS011;38656;54.260;20.822;2023-04-06T00:21:50;5.30;;;4.75;;
52776;SDS011;38656;54.260;20.822;2023-04-06T00:24:16;10.30;;;7.38;;
52776;SDS011;38656;54.260;20.822;2023-04-06T00:26:42;18.35;;;9.55;;
52776;SDS011;38656;54.260;20.822;2023-04-06T00:29:08;14.13;;;9.90;;
52776;SDS011;38656;54.260;20.822;2023-04-06T00:31:35;17.48;;;10.10;;
52776;SDS011;38656;54.260;20.822;2023-04-06T00:34:01;23.40;;;12.82;;
52776;SDS011;38656;54.260;20.822;2023-04-06T00:36:27;23.23;;;13.77;;
52776;SDS011;38656;54.260;20.822;2023-04-06T00:38:53;15.10;;;9.40;;
52776;SDS011;38656;54.260;20.822;2023-04-06T00:41:20;20.40;;;10.63;;
52776;SDS011;38656;54.260;20.822;2023-04-06T00:43:46;28.90;;;13.68;;
52776;SDS011;38656;54.260;20.822;2023-04-06T00:46:13;51.55;;;19.30;;
52776;SDS011;38656;54.260;20.822;2023-04-06T00:48:39;51.60;;;18.30;;
52776;SDS011;38656;54.260;20.822;2023-04-06T00:51:06;38.83;;;17.17;;
52776;SDS011;38656;54.260;20.822;2023-04-06T00:53:32;17.67;;;9.15;;
52776;SDS011;38656;54.260;20.822;2023-04-06T00:55:58;12.50;;;7.13;;
52776;SDS011;38656;54.260;20.822;2023-04-06T00:58:25;10.27;;;6.43;;
52776;SDS011;38656;54.260;20.822;2023-04-06T01:00:51;15.55;;;6.75;;
52776;SDS011;38656;54.260;20.822;2023-04-06T01:03:17;8.48;;;4.13;;
52776;SDS011;38656;54.260;20.822;2023-04-06T01:05:44;7.28;;;4.82;;
52776;SDS011;38656;54.260;20.822;2023-04-06T01:08:10;8.13;;;5.03;;
52776;SDS011;38656;54.260;20.822;2023-04-06T01:10:36;5.20;;;4.47;;
52776;SDS011;38656;54.260;20.822;2023-04-06T01:13:02;10.68;;;5.63;;
52776;SDS011;38656;54.260;20.822;2023-04-06T01:15:29;8.93;;;5.63;;
52776;SDS011;38656;54.260;20.822;2023-04-06T01:17:57;6.50;;;4.75;;
52776;SDS011;38656;54.260;20.822;2023-04-06T01:20:23;6.57;;;5.30;;
52776;SDS011;38656;54.260;20.822;2023-04-06T01:22:49;5.22;;;4.72;;
52776;SDS011;38656;54.260;20.822;2023-04-06T01:25:16;4.75;;;4.22;;
52776;SDS011;38656;54.260;20.822;2023-04-06T01:27:42;6.15;;;4.85;;
52776;SDS011;38656;54.260;20.822;2023-04-06T01:30:09;6.45;;;5.55;;
52776;SDS011;38656;54.260;20.822;2023-04-06T01:32:35;5.28;;;4.55;;
52776;SDS011;38656;54.260;20.822;2023-04-06T01:35:01;6.45;;;4.93;;
52776;SDS011;38656;54.260;20.822;2023-04-06T01:37:28;4.07;;;3.67;;
52776;SDS011;38656;54.260;20.822;2023-04-06T01:39:57;4.32;;;3.65;;
52776;SDS011;38656;54.260;20.822;2023-04-06T01:42:23;5.82;;;4.57;;
52776;SDS011;38656;54.260;20.822;2023-04-06T01:44:51;8.13;;;3.95;;
52776;SDS011;38656;54.260;20.822;2023-04-06T01:47:17;4.93;;;3.92;;
52776;SDS011;38656;54.260;20.822;2023-04-06T01:49:43;4.80;;;3.72;;
52776;SDS011;38656;54.260;20.822;2023-04-06T01:52:10;8.52;;;3.90;;
52776;SDS011;38656;54.260;20.822;2023-04-06T01:54:36;4.80;;;4.28;;
52776;SDS011;38656;54.260;20.822;2023-04-06T01:57:02;6.30;;;4.68;;
52776;SDS011;38656;54.260;20.822;2023-04-06T01:59:28;4.43;;;3.85;;
52776;SDS011;38656;54.260;20.822;2023-04-06T02:01:54;16.88;;;10.75;;
52776;SDS011;38656;54.260;20.822;2023-04-06T02:04:21;5.50;;;4.10;;
52776;SDS011;38656;54.260;20.822;2023-04-06T02:06:47;4.90;;;4.40;;
52776;SDS011;38656;54.260;20.822;2023-04-06T02:09:13;5.40;;;4.28;;
52776;SDS011;38656;54.260;20.822;2023-04-06T02:11:40;4.75;;;3.90;;
52776;SDS011;38656;54.260;20.822;2023-04-06T02:14:07;5.80;;;4.13;;
52776;SDS011;38656;54.260;20.822;2023-04-06T02:16:33;7.18;;;5.18;;
52776;SDS011;38656;54.260;20.822;2023-04-06T02:18:59;6.82;;;4.63;;
52776;SDS011;38656;54.260;20.822;2023-04-06T02:21:25;5.88;;;4.15;;
52776;SDS011;38656;54.260;20.822;2023-04-06T02:23:52;4.80;;;4.28;;
52776;SDS011;38656;54.260;20.822;2023-04-06T02:26:18;5.53;;;4.93;;
52776;SDS011;38656;54.260;20.822;2023-04-06T02:28:45;9.60;;;4.82;;
52776;SDS011;38656;54.260;20.822;2023-04-06T02:31:11;6.97;;;4.60;;
52776;SDS011;38656;54.260;20.822;2023-04-06T02:33:39;8.43;;;4.78;;
52776;SDS011;38656;54.260;20.822;2023-04-06T02:36:06;5.47;;;4.60;;
52776;SDS011;38656;54.260;20.822;2023-04-06T02:38:32;4.78;;;4.05;;
52776;SDS011;38656;54.260;20.822;2023-04-06T02:40:58;5.85;;;5.28;;
52776;SDS011;38656;54.260;20.822;2023-04-06T02:43:25;6.45;;;5.75;;
52776;SDS011;38656;54.260;20.822;2023-04-06T02:45:52;8.18;;;4.95;;
52776;SDS011;38656;54.260;20.822;2023-04-06T02:48:18;6.43;;;5.25;;
52776;SDS011;38656;54.260;20.822;2023-04-06T02:50:44;7.20;;;4.95;;
52776;SDS011;38656;54.260;20.822;2023-04-06T02:53:11;9.85;;;5.38;;
52776;SDS011;38656;54.260;20.822;2023-04-06T02:55:37;10.35;;;5.95;;
52776;SDS011;38656;54.260;20.822;2023-04-06T02:58:03;6.93;;;5.00;;
52776;SDS011;38656;54.260;20.822;2023-04-06T03:00:29;6.18;;;5.18;;
52776;SDS011;38656;54.260;20.822;2023-04-06T03:02:56;5.72;;;4.75;;
52776;SDS011;38656;54.260;20.822;2023-04-06T03:05:22;5.90;;;4.80;;
52776;SDS011;38656;54.260;20.822;2023-04-06T03:07:48;5.75;;;4.47;;
52776;SDS011;38656;54.260;20.822;2023-04-06T03:10:14;8.23;;;5.35;;
52776;SDS011;38656;54.260;20.822;2023-04-06T03:12:41;8.10;;;4.55;;
52776;SDS011;38656;54.260;20.822;2023-04-06T03:15:07;6.07;;;4.75;;
52776;SDS011;38656;54.260;20.822;2023-04-06T03:17:34;6.13;;;5.00;;
52776;SDS011;38656;54.260;20.822;2023-04-06T03:20:00;6.55;;;4.70;;
52776;SDS011;38656;54.260;20.822;2023-04-06T03:22:26;5.93;;;4.55;;
52776;SDS011;38656;54.260;20.822;2023-04-06T03:24:53;6.03;;;5.25;;
52776;SDS011;38656;54.260;20.822;2023-04-06T03:27:20;6.10;;;5.50;;
52776;SDS011;38656;54.260;20.822;2023-04-06T03:29:46;5.95;;;5.38;;
52776;SDS011;38656;54.260;20.822;2023-04-06T03:32:12;6.38;;;5.25;;
52776;SDS011;38656;54.260;20.822;2023-04-06T03:34:38;8.90;;;4.68;;
52776;SDS011;38656;54.260;20.822;2023-04-06T03:37:05;7.45;;;5.45;;
52776;SDS011;38656;54.260;20.822;2023-04-06T03:39:31;6.63;;;5.03;;
52776;SDS011;38656;54.260;20.822;2023-04-06T03:41:57;6.90;;;4.97;;
52776;SDS011;38656;54.260;20.822;2023-04-06T03:44:23;7.43;;;4.70;;
52776;SDS011;38656;54.260;20.822;2023-04-06T03:46:49;7.15;;;4.63;;
52776;SDS011;38656;54.260;20.822;2023-04-06T03:49:16;6.25;;;5.25;;
52776;SDS011;38656;54.260;20.822;2023-04-06T03:51:42;4.95;;;4.45;;
52776;SDS011;38656;54.260;20.822;2023-04-06T03:54:08;7.40;;;5.43;;
52776;SDS011;38656;54.260;20.822;2023-04-06T03:56:34;11.63;;;5.70;;
52776;SDS011;38656;54.260;20.822;2023-04-06T03:59:00;8.77;;;6.55;;
52776;SDS011;38656;54.260;20.822;2023-04-06T04:01:27;7.43;;;5.95;;
52776;SDS011;38656;54.260;20.822;2023-04-06T04:03:53;40.42;;;32.60;;
52776;SDS011;38656;54.260;20.822;2023-04-06T04:06:20;12.75;;;10.02;;
52776;SDS011;38656;54.260;20.822;2023-04-06T04:08:46;6.38;;;5.75;;
52776;SDS011;38656;54.260;20.822;2023-04-06T04:11:12;61.83;;;46.55;;
52776;SDS011;38656;54.260;20.822;2023-04-06T04:13:40;38.97;;;29.77;;
52776;SDS011;38656;54.260;20.822;2023-04-06T04:16:06;44.03;;;32.95;;
52776;SDS011;38656;54.260;20.822;2023-04-06T04:18:33;139.32;;;69.25;;
52776;SDS011;38656;54.260;20.822;2023-04-06T04:20:59;259.00;;;118.35;;
52776;SDS011;38656;54.260;20.822;2023-04-06T04:23:25;266.48;;;120.70;;
52776;SDS011;38656;54.260;20.822;2023-04-06T04:25:51;246.77;;;116.53;;
52776;SDS011;38656;54.260;20.822;2023-04-06T04:28:18;313.75;;;150.77;;
52776;SDS011;38656;54.260;20.822;2023-04-06T04:30:44;312.48;;;139.80;;
52776;SDS011;38656;54.260;20.822;2023-04-06T04:33:11;289.75;;;120.07;;
52776;SDS011;38656;54.260;20.822;2023-04-06T04:35:37;440.90;;;213.05;;
52776;SDS011;38656;54.260;20.822;2023-04-06T04:38:03;544.17;;;276.58;;
52776;SDS011;38656;54.260;20.822;2023-04-06T04:40:30;515.67;;;259.10;;
52776;SDS011;38656;54.260;20.822;2023-04-06T04:42:56;381.17;;;166.13;;
52776;SDS011;38656;54.260;20.822;2023-04-06T04:45:22;192.88;;;86.45;;
52776;SDS011;38656;54.260;20.822;2023-04-06T04:47:48;129.38;;;71.13;;
52776;SDS011;38656;54.260;20.822;2023-04-06T04:50:15;42.80;;;32.80;;
52776;SDS011;38656;54.260;20.822;2023-04-06T04:52:41;53.03;;;47.35;;
52776;SDS011;38656;54.260;20.822;2023-04-06T04:55:07;29.27;;;26.17;;
52776;SDS011;38656;54.260;20.822;2023-04-06T04:57:34;604.88;;;301.40;;
52776;SDS011;38656;54.260;20.822;2023-04-06T05:00:00;55.47;;;44.90;;
52776;SDS011;38656;54.260;20.822;2023-04-06T05:02:27;41.03;;;30.13;;
52776;SDS011;38656;54.260;20.822;2023-04-06T05:04:53;20.23;;;17.65;;
52776;SDS011;38656;54.260;20.822;2023-04-06T05:07:19;21.25;;;13.48;;
52776;SDS011;38656;54.260;20.822;2023-04-06T05:09:46;15.40;;;12.20;;
52776;SDS011;38656;54.260;20.822;2023-04-06T05:12:12;14.77;;;11.68;;
52776;SDS011;38656;54.260;20.822;2023-04-06T05:14:39;13.70;;;12.13;;
52776;SDS011;38656;54.260;20.822;2023-04-06T05:17:06;25.77;;;23.02;;
52776;SDS011;38656;54.260;20.822;2023-04-06T05:19:32;188.00;;;72.88;;
52776;SDS011;38656;54.260;20.822;2023-04-06T05:21:59;193.13;;;83.43;;
52776;SDS011;38656;54.260;20.822;2023-04-06T05:24:25;99.32;;;58.72;;
52776;SDS011;38656;54.260;20.822;2023-04-06T05:26:51;130.95;;;65.72;;
52776;SDS011;38656;54.260;20.822;2023-04-06T05:29:18;75.38;;;51.25;;
52776;SDS011;38656;54.260;20.822;2023-04-06T05:31:45;40.47;;;34.00;;
52776;SDS011;38656;54.260;20.822;2023-04-06T05:34:11;42.92;;;36.78;;
52776;SDS011;38656;54.260;20.822;2023-04-06T05:36:38;40.00;;;34.92;;
52776;SDS011;38656;54.260;20.822;2023-04-06T05:39:05;21.92;;;17.95;;
52776;SDS011;38656;54.260;20.822;2023-04-06T05:41:32;11.25;;;9.98;;
52776;SDS011;38656;54.260;20.822;2023-04-06T05:43:58;12.40;;;11.10;;
52776;SDS011;38656;54.260;20.822;2023-04-06T05:46:25;11.60;;;9.75;;
52776;SDS011;38656;54.260;20.822;2023-04-06T05:48:51;5.88;;;5.22;;
52776;SDS011;38656;54.260;20.822;2023-04-06T05:51:17;9.00;;;4.90;;
52776;SDS011;38656;54.260;20.822;2023-04-06T05:53:44;6.60;;;4.53;;
52776;SDS011;38656;54.260;20.822;2023-04-06T05:56:11;7.85;;;4.93;;
52776;SDS011;38656;54.260;20.822;2023-04-06T05:58:37;4.70;;;4.30;;
52776;SDS011;38656;54.260;20.822;2023-04-06T06:01:04;8.48;;;4.50;;
52776;SDS011;38656;54.260;20.822;2023-04-06T06:03:30;7.18;;;4.90;;
52776;SDS011;38656;54.260;20.822;2023-04-06T06:06:03;5.53;;;4.93;;
52776;SDS011;38656;54.260;20.822;2023-04-06T06:08:30;6.23;;;3.53;;
52776;SDS011;38656;54.260;20.822;2023-04-06T06:10:56;6.70;;;3.60;;
52776;SDS011;38656;54.260;20.822;2023-04-06T06:13:23;3.97;;;2.97;;
52776;SDS011;38656;54.260;20.822;2023-04-06T06:15:49;3.72;;;3.33;;
52776;SDS011;38656;54.260;20.822;2023-04-06T06:18:16;8.20;;;4.50;;
52776;SDS011;38656;54.260;20.822;2023-04-06T06:20:42;3.55;;;3.20;;
52776;SDS011;38656;54.260;20.822;2023-04-06T06:23:08;4.57;;;3.00;;
52776;SDS011;38656;54.260;20.822;2023-04-06T06:25:35;6.47;;;3.80;;
52776;SDS011;38656;54.260;20.822;2023-04-06T06:28:01;3.83;;;2.60;;
52776;SDS011;38656;54.260;20.822;2023-04-06T06:30:27;4.85;;;2.70;;
52776;SDS011;38656;54.260;20.822;2023-04-06T06:32:53;5.57;;;4.20;;
52776;SDS011;38656;54.260;20.822;2023-04-06T06:35:20;21.23;;;17.42;;
52776;SDS011;38656;54.260;20.822;2023-04-06T06:37:46;14.70;;;13.15;;
52776;SDS011;38656;54.260;20.822;2023-04-06T06:40:12;11.75;;;9.90;;
52776;SDS011;38656;54.260;20.822;2023-04-06T06:42:41;6.65;;;5.88;;
52776;SDS011;38656;54.260;20.822;2023-04-06T06:45:07;5.45;;;3.83;;
52776;SDS011;38656;54.260;20.822;2023-04-06T06:47:34;3.88;;;3.28;;
52776;SDS011;38656;54.260;20.822;2023-04-06T06:50:00;5.65;;;3.28;;
52776;SDS011;38656;54.260;20.822;2023-04-06T06:52:28;7.20;;;2.97;;
52776;SDS011;38656;54.260;20.822;2023-04-06T06:54:54;3.80;;;2.83;;
52776;SDS011;38656;54.260;20.822;2023-04-06T06:57:21;5.03;;;3.45;;
52776;SDS011;38656;54.260;20.822;2023-04-06T06:59:47;8.43;;;4.45;;
52776;SDS011;38656;54.260;20.822;2023-04-06T07:02:14;4.93;;;3.15;;
52776;SDS011;38656;54.260;20.822;2023-04-06T07:04:40;3.10;;;2.80;;
52776;SDS011;38656;54.260;20.822;2023-04-06T07:07:06;3.08;;;2.80;;
52776;SDS011;38656;54.260;20.822;2023-04-06T07:09:33;3.10;;;2.80;;
52776;SDS011;38656;54.260;20.822;2023-04-06T07:12:00;9.32;;;4.05;;
52776;SDS011;38656;54.260;20.822;2023-04-06T07:14:27;7.03;;;3.78;;
52776;SDS011;38656;54.260;20.822;2023-04-06T07:16:53;5.25;;;3.70;;
52776;SDS011;38656;54.260;20.822;2023-04-06T07:19:19;6.15;;;4.80;;
52776;SDS011;38656;54.260;20.822;2023-04-06T07:21:45;4.65;;;3.78;;
52776;SDS011;38656;54.260;20.822;2023-04-06T07:24:14;5.63;;;3.85;;
52776;SDS011;38656;54.260;20.822;2023-04-06T07:26:41;4.50;;;3.75;;
52776;SDS011;38656;54.260;20.822;2023-04-06T07:29:07;3.40;;;2.35;;
52776;SDS011;38656;54.260;20.822;2023-04-06T07:31:34;5.90;;;3.63;;
52776;SDS011;38656;54.260;20.822;2023-04-06T07:34:01;5.15;;;3.55;;
52776;SDS011;38656;54.260;20.822;2023-04-06T07:36:27;11.27;;;4.82;;
52776;SDS011;38656;54.260;20.822;2023-04-06T07:38:53;4.78;;;3.22;;
52776;SDS011;38656;54.260;20.822;2023-04-06T07:41:19;11.27;;;4.63;;
52776;SDS011;38656;54.260;20.822;2023-04-06T07:43:46;4.32;;;3.33;;
52776;SDS011;38656;54.260;20.822;2023-04-06T07:46:13;3.67;;;3.25;;
52776;SDS011;38656;54.260;20.822;2023-04-06T07:48:39;16.80;;;9.15;;
52776;SDS011;38656;54.260;20.822;2023-04-06T07:51:06;13.82;;;7.95;;
52776;SDS011;38656;54.260;20.822;2023-04-06T07:53:33;8.10;;;4.90;;
52776;SDS011;38656;54.260;20.822;2023-04-06T07:56:00;7.20;;;4.53;;
52776;SDS011;38656;54.260;20.822;2023-04-06T07:58:26;9.50;;;6.22;;
52776;SDS011;38656;54.260;20.822;2023-04-06T08:00:52;5.43;;;3.00;;
52776;SDS011;38656;54.260;20.822;2023-04-06T08:03:19;3.50;;;2.58;;
52776;SDS011;38656;54.260;20.822;2023-04-06T08:05:50;4.28;;;3.40;;
52776;SDS011;38656;54.260;20.822;2023-04-06T08:08:20;6.90;;;5.15;;
52776;SDS011;38656;54.260;20.822;2023-04-06T08:10:47;22.63;;;18.30;;
52776;SDS011;38656;54.260;20.822;2023-04-06T08:13:14;29.42;;;21.90;;
52776;SDS011;38656;54.260;20.822;2023-04-06T08:15:41;9.73;;;5.85;;
52776;SDS011;38656;54.260;20.822;2023-04-06T08:18:08;118.60;;;52.42;;
52776;SDS011;38656;54.260;20.822;2023-04-06T08:20:34;141.52;;;57.10;;
52776;SDS011;38656;54.260;20.822;2023-04-06T08:23:00;28.05;;;16.83;;
52776;SDS011;38656;54.260;20.822;2023-04-06T08:25:27;357.02;;;138.82;;
52776;SDS011;38656;54.260;20.822;2023-04-06T08:27:54;32.88;;;18.60;;
52776;SDS011;38656;54.260;20.822;2023-04-06T08:30:21;16.33;;;9.65;;
52776;SDS011;38656;54.260;20.822;2023-04-06T08:32:47;55.05;;;37.78;;
52776;SDS011;38656;54.260;20.822;2023-04-06T08:35:13;237.27;;;88.35;;
52776;SDS011;38656;54.260;20.822;2023-04-06T08:37:39;278.83;;;117.45;;
52776;SDS011;38656;54.260;20.822;2023-04-06T08:40:06;180.40;;;74.97;;
52776;SDS011;38656;54.260;20.822;2023-04-06T08:42:33;15.75;;;10.75;;
52776;SDS011;38656;54.260;20.822;2023-04-06T08:45:04;279.77;;;114.97;;
52776;SDS011;38656;54.260;20.822;2023-04-06T08:47:30;63.65;;;31.95;;
52776;SDS011;38656;54.260;20.822;2023-04-06T08:49:57;69.53;;;28.17;;
52776;SDS011;38656;54.260;20.822;2023-04-06T08:52:28;25.50;;;17.00;;
52776;SDS011;38656;54.260;20.822;2023-04-06T08:54:59;16.70;;;13.80;;
52776;SDS011;38656;54.260;20.822;2023-04-06T08:57:25;45.83;;;28.55;;
52776;SDS011;38656;54.260;20.822;2023-04-06T08:59:52;61.80;;;29.63;;
52776;SDS011;38656;54.260;20.822;2023-04-06T09:02:20;27.95;;;15.00;;
52776;SDS011;38656;54.260;20.822;2023-04-06T09:04:47;30.77;;;21.35;;
52776;SDS011;38656;54.260;20.822;2023-04-06T09:07:18;14.90;;;11.75;;
52776;SDS011;38656;54.260;20.822;2023-04-06T09:09:45;24.70;;;18.15;;
52776;SDS011;38656;54.260;20.822;2023-04-06T09:14:52;38.80;;;23.67;;
52776;SDS011;38656;54.260;20.822;2023-04-06T09:17:26;25.70;;;15.68;;
52776;SDS011;38656;54.260;20.822;2023-04-06T09:19:54;17.15;;;13.82;;
52776;SDS011;38656;54.260;20.822;2023-04-06T09:22:21;19.05;;;14.75;;
52776;SDS011;38656;54.260;20.822;2023-04-06T09:24:51;26.02;;;16.05;;
52776;SDS011;38656;54.260;20.822;2023-04-06T09:27:19;32.50;;;20.88;;
52776;SDS011;38656;54.260;20.822;2023-04-06T09:30:06;22.88;;;15.82;;
52776;SDS011;38656;54.260;20.822;2023-04-06T09:35:17;18.75;;;10.23;;
52776;SDS011;38656;54.260;20.822;2023-04-06T09:37:45;15.48;;;11.15;;
52776;SDS011;38656;54.260;20.822;2023-04-06T09:40:13;25.08;;;14.70;;
52776;SDS011;38656;54.260;20.822;2023-04-06T09:42:44;19.50;;;11.27;;
52776;SDS011;38656;54.260;20.822;2023-04-06T09:45:12;19.70;;;15.05;;
52776;SDS011;38656;54.260;20.822;2023-04-06T09:47:39;18.17;;;13.65;;
52776;SDS011;38656;54.260;20.822;2023-04-06T09:50:09;14.90;;;12.27;;
52776;SDS011;38656;54.260;20.822;2023-04-06T09:55:30;10.52;;;8.25;;
52776;SDS011;38656;54.260;20.822;2023-04-06T09:58:18;8.88;;;7.32;;
52776;SDS011;38656;54.260;20.822;2023-04-06T10:01:02;5.25;;;4.75;;
52776;SDS011;38656;54.260;20.822;2023-04-06T10:03:48;12.63;;;8.73;;
52776;SDS011;38656;54.260;20.822;2023-04-06T10:06:27;29.20;;;18.70;;
52776;SDS011;38656;54.260;20.822;2023-04-06T10:08:58;74.78;;;48.13;;
52776;SDS011;38656;54.260;20.822;2023-04-06T10:11:26;20.67;;;15.35;;
52776;SDS011;38656;54.260;20.822;2023-04-06T10:13:53;38.55;;;26.75;;
52776;SDS011;38656;54.260;20.822;2023-04-06T10:16:22;105.32;;;56.97;;
52776;SDS011;38656;54.260;20.822;2023-04-06T10:18:54;55.50;;;40.38;;
52776;SDS011;38656;54.260;20.822;2023-04-06T10:21:26;20.50;;;13.80;;
52776;SDS011;38656;54.260;20.822;2023-04-06T10:23:58;26.58;;;21.42;;
52776;SDS011;38656;54.260;20.822;2023-04-06T10:26:26;176.50;;;71.45;;
52776;SDS011;38656;54.260;20.822;2023-04-06T10:28:53;297.80;;;124.40;;
52776;SDS011;38656;54.260;20.822;2023-04-06T10:31:24;184.52;;;74.32;;
52776;SDS011;38656;54.260;20.822;2023-04-06T10:33:59;82.00;;;49.05;;
52776;SDS011;38656;54.260;20.822;2023-04-06T10:36:33;19.60;;;14.57;;
52776;SDS011;38656;54.260;20.822;2023-04-06T10:39:00;37.85;;;24.30;;
52776;SDS011;38656;54.260;20.822;2023-04-06T10:41:36;31.30;;;21.38;;
52776;SDS011;38656;54.260;20.822;2023-04-06T10:44:23;24.95;;;20.08;;
52776;SDS011;38656;54.260;20.822;2023-04-06T10:46:56;47.20;;;34.28;;
52776;SDS011;38656;54.260;20.822;2023-04-06T10:49:26;12.63;;;8.70;;
52776;SDS011;38656;54.260;20.822;2023-04-06T10:51:56;17.67;;;12.45;;
52776;SDS011;38656;54.260;20.822;2023-04-06T10:54:23;22.00;;;14.10;;
52776;SDS011;38656;54.260;20.822;2023-04-06T10:56:51;9.65;;;8.23;;
52776;SDS011;38656;54.260;20.822;2023-04-06T10:59:20;22.92;;;17.90;;
52776;SDS011;38656;54.260;20.822;2023-04-06T11:01:47;28.90;;;23.17;;
52776;SDS011;38656;54.260;20.822;2023-04-06T11:04:25;41.30;;;34.88;;
52776;SDS011;38656;54.260;20.822;2023-04-06T11:06:52;18.35;;;11.23;;
52776;SDS011;38656;54.260;20.822;2023-04-06T11:09:26;106.95;;;44.60;;
52776;SDS011;38656;54.260;20.822;2023-04-06T11:11:54;84.22;;;39.50;;
52776;SDS011;38656;54.260;20.822;2023-04-06T11:14:21;87.55;;;41.17;;
52776;SDS011;38656;54.260;20.822;2023-04-06T11:16:48;23.15;;;17.63;;
52776;SDS011;38656;54.260;20.822;2023-04-06T11:19:15;19.17;;;13.32;;
52776;SDS011;38656;54.260;20.822;2023-04-06T11:21:48;20.10;;;16.27;;
52776;SDS011;38656;54.260;20.822;2023-04-06T11:29:20;10.88;;;9.30;;
52776;SDS011;38656;54.260;20.822;2023-04-06T11:31:49;14.45;;;10.90;;
52776;SDS011;38656;54.260;20.822;2023-04-06T11:34:25;16.35;;;11.70;;
52776;SDS011;38656;54.260;20.822;2023-04-06T11:36:55;14.88;;;10.63;;
52776;SDS011;38656;54.260;20.822;2023-04-06T11:39:23;22.33;;;19.67;;
52776;SDS011;38656;54.260;20.822;2023-04-06T11:41:52;16.55;;;13.93;;
52776;SDS011;38656;54.260;20.822;2023-04-06T11:44:35;20.17;;;14.65;;
52776;SDS011;38656;54.260;20.822;2023-04-06T11:47:08;241.52;;;92.28;;
52776;SDS011;38656;54.260;20.822;2023-04-06T11:49:39;27.25;;;18.27;;
52776;SDS011;38656;54.260;20.822;2023-04-06T11:52:19;69.93;;;37.63;;
52776;SDS011;38656;54.260;20.822;2023-04-06T11:54:48;20.10;;;12.88;;
52776;SDS011;38656;54.260;20.822;2023-04-06T11:57:16;24.02;;;13.88;;
52776;SDS011;38656;54.260;20.822;2023-04-06T11:59:44;291.10;;;101.40;;
52776;SDS011;38656;54.260;20.822;2023-04-06T12:02:10;95.43;;;43.42;;
52776;SDS011;38656;54.260;20.822;2023-04-06T12:04:37;138.48;;;55.85;;
52776;SDS011;38656;54.260;20.822;2023-04-06T12:07:04;61.08;;;29.55;;
52776;SDS011;38656;54.260;20.822;2023-04-06T12:09:30;216.40;;;89.22;;
52776;SDS011;38656;54.260;20.822;2023-04-06T12:11:57;119.60;;;67.70;;
52776;SDS011;38656;54.260;20.822;2023-04-06T12:14:23;21.65;;;18.13;;
52776;SDS011;38656;54.260;20.822;2023-04-06T12:16:50;18.85;;;13.88;;
52776;SDS011;38656;54.260;20.822;2023-04-06T12:19:16;208.30;;;81.28;;
52776;SDS011;38656;54.260;20.822;2023-04-06T12:21:42;53.42;;;34.65;;
52776;SDS011;38656;54.260;20.822;2023-04-06T12:24:09;89.72;;;41.67;;
52776;SDS011;38656;54.260;20.822;2023-04-06T12:26:35;40.15;;;25.58;;
52776;SDS011;38656;54.260;20.822;2023-04-06T12:29:02;31.17;;;18.08;;
52776;SDS011;38656;54.260;20.822;2023-04-06T12:31:35;27.73;;;16.58;;
52776;SDS011;38656;54.260;20.822;2023-04-06T12:34:03;226.00;;;83.78;;
52776;SDS011;38656;54.260;20.822;2023-04-06T12:36:30;190.00;;;72.75;;
52776;SDS011;38656;54.260;20.822;2023-04-06T12:38:57;133.70;;;56.20;;
52776;SDS011;38656;54.260;20.822;2023-04-06T12:41:23;115.15;;;50.65;;
52776;SDS011;38656;54.260;20.822;2023-04-06T12:43:50;52.13;;;32.28;;
52776;SDS011;38656;54.260;20.822;2023-04-06T12:46:16;176.50;;;70.18;;
52776;SDS011;38656;54.260;20.822;2023-04-06T12:48:42;17.98;;;11.48;;
52776;SDS011;38656;54.260;20.822;2023-04-06T12:51:09;230.00;;;106.43;;
52776;SDS011;38656;54.260;20.822;2023-04-06T12:53:35;44.25;;;29.45;;
52776;SDS011;38656;54.260;20.822;2023-04-06T12:56:02;85.20;;;53.33;;
52776;SDS011;38656;54.260;20.822;2023-04-06T12:58:38;38.10;;;28.33;;
52776;SDS011;38656;54.260;20.822;2023-04-06T13:01:06;31.63;;;20.40;;
52776;SDS011;38656;54.260;20.822;2023-04-06T13:03:33;165.88;;;78.72;;
52776;SDS011;38656;54.260;20.822;2023-04-06T13:06:00;18.63;;;14.02;;
52776;SDS011;38656;54.260;20.822;2023-04-06T13:08:26;36.08;;;27.50;;
52776;SDS011;38656;54.260;20.822;2023-04-06T13:10:53;21.25;;;16.60;;
52776;SDS011;38656;54.260;20.822;2023-04-06T13:13:22;39.25;;;28.52;;
52776;SDS011;38656;54.260;20.822;2023-04-06T13:15:50;19.65;;;17.58;;
52776;SDS011;38656;54.260;20.822;2023-04-06T13:18:17;17.80;;;13.32;;
52776;SDS011;38656;54.260;20.822;2023-04-06T13:20:44;15.73;;;10.75;;
52776;SDS011;38656;54.260;20.822;2023-04-06T13:23:11;16.27;;;10.00;;
52776;SDS011;38656;54.260;20.822;2023-04-06T13:25:38;47.97;;;27.98;;
52776;SDS011;38656;54.260;20.822;2023-04-06T13:28:04;79.97;;;55.72;;
52776;SDS011;38656;54.260;20.822;2023-04-06T13:30:32;74.35;;;45.28;;
52776;SDS011;38656;54.260;20.822;2023-04-06T13:32:59;39.25;;;28.20;;
52776;SDS011;38656;54.260;20.822;2023-04-06T13:35:29;45.05;;;34.67;;
52776;SDS011;38656;54.260;20.822;2023-04-06T13:37:55;48.08;;;36.78;;
52776;SDS011;38656;54.260;20.822;2023-04-06T13:40:22;29.80;;;23.05;;
52776;SDS011;38656;54.260;20.822;2023-04-06T13:42:48;26.90;;;24.02;;
52776;SDS011;38656;54.260;20.822;2023-04-06T13:45:15;28.40;;;24.00;;
52776;SDS011;38656;54.260;20.822;2023-04-06T13:47:41;13.93;;;11.57;;
52776;SDS011;38656;54.260;20.822;2023-04-06T13:50:08;25.63;;;21.85;;
52776;SDS011;38656;54.260;20.822;2023-04-06T13:52:35;18.58;;;16.08;;
52776;SDS011;38656;54.260;20.822;2023-04-06T13:55:02;19.65;;;15.10;;
52776;SDS011;38656;54.260;20.822;2023-04-06T13:57:29;11.43;;;9.50;;
52776;SDS011;38656;54.260;20.822;2023-04-06T13:59:55;18.90;;;14.15;;
52776;SDS011;38656;54.260;20.822;2023-04-06T14:02:22;26.73;;;21.65;;
52776;SDS011;38656;54.260;20.822;2023-04-06T14:04:52;22.10;;;18.63;;
52776;SDS011;38656;54.260;20.822;2023-04-06T14:07:20;28.83;;;19.35;;
52776;SDS011;38656;54.260;20.822;2023-04-06T14:09:47;35.17;;;25.85;;
52776;SDS011;38656;54.260;20.822;2023-04-06T14:12:13;26.58;;;17.27;;
52776;SDS011;38656;54.260;20.822;2023-04-06T14:14:39;31.35;;;20.23;;
52776;SDS011;38656;54.260;20.822;2023-04-06T14:17:06;31.88;;;22.42;;
52776;SDS011;38656;54.260;20.822;2023-04-06T14:19:32;25.95;;;19.00;;
52776;SDS011;38656;54.260;20.822;2023-04-06T14:22:01;12.38;;;9.70;;
52776;SDS011;38656;54.260;20.822;2023-04-06T14:24:27;25.98;;;15.65;;
52776;SDS011;38656;54.260;20.822;2023-04-06T14:26:54;33.03;;;21.58;;
52776;SDS011;38656;54.260;20.822;2023-04-06T14:29:21;36.20;;;22.17;;
52776;SDS011;38656;54.260;20.822;2023-04-06T14:31:47;49.33;;;31.42;;
52776;SDS011;38656;54.260;20.822;2023-04-06T14:34:14;25.85;;;18.55;;